Terminal Aerodrome Forecast
Issued by NWS

Home | Current Version | Previous Version | Graphics & Text | Print | Product List | Glossary On
Versions: 1 2 3 4 5 6 7 8 9 10 11 12 13 14 15 16
000
FTUS43 KGRB 241100 RRA
TAFATW
TAF
KATW 241145Z 2412/2512 27007KT P6SM BKN018 OVC050
     FM241700 28008KT P6SM SCT025 BKN100
     FM242300 34006KT 6SM -SN BKN020 OVC035
     FM250200 04009KT 3SM -SN BKN015 OVC030
     FM250700 04012G20KT P6SM -SN BKN018=

USA.gov is the U.S. government's official web portal to all federal, state and local government web resources and services.